createdAt,value
2018-01-17T00:01:37.524Z,4.50
2018-01-17T00:04:05.059Z,4.50
2018-01-17T00:06:32.578Z,4.50
2018-01-17T00:09:00.884Z,4.50
2018-01-17T00:11:28.497Z,4.50
2018-01-17T00:13:56.712Z,5.30
2018-01-17T00:16:25.002Z,4.40
2018-01-17T00:18:53.313Z,4.40
2018-01-17T00:21:20.826Z,4.40
2018-01-17T00:23:49.449Z,4.30
2018-01-17T00:26:16.968Z,4.30
2018-01-17T00:28:44.482Z,4.30
2018-01-17T00:31:11.993Z,4.40
2018-01-17T00:33:39.532Z,4.40
2018-01-17T00:36:07.042Z,4.50
2018-01-17T00:38:35.320Z,4.50
2018-01-17T00:41:03.619Z,4.60
2018-01-17T00:43:31.136Z,4.50
2018-01-17T00:45:58.652Z,4.60
2018-01-17T00:48:26.206Z,4.60
2018-01-17T00:50:54.496Z,4.70
2018-01-17T00:53:22.776Z,4.70
2018-01-17T00:55:51.177Z,4.70
2018-01-17T00:58:18.686Z,4.70
2018-01-17T01:00:46.272Z,4.70
2018-01-17T01:03:13.811Z,4.70
2018-01-17T01:05:42.093Z,4.70
2018-01-17T01:08:09.618Z,4.70
2018-01-17T01:10:37.147Z,4.70
2018-01-17T01:13:04.664Z,4.80
2018-01-17T01:15:32.176Z,4.80
2018-01-17T01:17:59.767Z,4.80
2018-01-17T01:20:27.333Z,4.80
2018-01-17T01:22:54.852Z,4.80
2018-01-17T01:25:22.387Z,4.90
2018-01-17T01:27:49.924Z,4.90
2018-01-17T01:30:17.456Z,4.90
2018-01-17T01:32:44.989Z,4.90
2018-01-17T01:35:12.507Z,4.90
2018-01-17T01:37:40.796Z,4.80
2018-01-17T01:40:09.098Z,4.80
2018-01-17T01:42:36.612Z,4.80
2018-01-17T01:45:05.014Z,4.80
2018-01-17T01:47:33.311Z,4.90
2018-01-17T01:50:00.839Z,4.80
2018-01-17T01:52:28.361Z,4.90
2018-01-17T01:54:55.887Z,4.90
2018-01-17T01:57:24.175Z,4.80
2018-01-17T01:59:52.468Z,4.70
2018-01-17T02:02:20.788Z,4.60
2018-01-17T02:04:48.333Z,4.50
2018-01-17T02:07:15.848Z,4.50
2018-01-17T02:09:43.463Z,4.40
2018-01-17T02:12:10.965Z,4.10
2018-01-17T02:14:38.737Z,3.60
2018-01-17T02:17:06.263Z,3.30
2018-01-17T02:19:33.767Z,2.90
2018-01-17T02:22:01.331Z,2.70
2018-01-17T02:24:28.987Z,2.60
2018-01-17T02:26:56.628Z,2.40
2018-01-17T02:29:24.130Z,2.30
2018-01-17T02:31:52.044Z,2.20
2018-01-17T02:34:20.328Z,2.20
2018-01-17T02:36:48.620Z,2.30
2018-01-17T02:39:16.157Z,2.20
2018-01-17T02:41:43.677Z,2.30
2018-01-17T02:44:11.215Z,2.30
2018-01-17T02:46:39.504Z,2.40
2018-01-17T02:49:07.036Z,2.40
2018-01-17T02:51:35.325Z,2.50
2018-01-17T02:54:03.620Z,2.50
2018-01-17T02:56:31.146Z,2.50
2018-01-17T02:58:58.669Z,2.50
2018-01-17T03:01:26.512Z,2.60
2018-01-17T03:03:54.788Z,2.70
2018-01-17T03:06:23.075Z,2.70
2018-01-17T03:08:51.416Z,2.80
2018-01-17T03:11:18.943Z,2.70
2018-01-17T03:13:46.461Z,2.80
2018-01-17T03:16:13.992Z,2.80
2018-01-17T03:18:41.649Z,2.90
2018-01-17T03:21:09.153Z,2.90
2018-01-17T03:23:36.735Z,2.90
2018-01-17T03:26:05.023Z,2.90
2018-01-17T03:28:33.321Z,2.90
2018-01-17T03:31:01.616Z,2.90
2018-01-17T03:33:29.126Z,2.90
2018-01-17T03:35:56.654Z,2.90
2018-01-17T03:38:24.492Z,2.90
2018-01-17T03:40:52.773Z,3.00
2018-01-17T03:43:21.053Z,2.90
2018-01-17T03:45:49.363Z,2.90
2018-01-17T03:48:16.872Z,2.80
2018-01-17T03:50:44.385Z,2.90
2018-01-17T03:53:11.916Z,2.90
2018-01-17T03:55:39.509Z,2.80
2018-01-17T03:58:07.797Z,2.70
2018-01-17T04:00:35.340Z,2.70
2018-01-17T04:03:03.627Z,2.80
2018-01-17T04:05:31.913Z,2.80
2018-01-17T04:08:00.224Z,2.80
2018-01-17T04:10:27.739Z,2.80
2018-01-17T04:12:55.352Z,2.80
2018-01-17T04:15:22.884Z,2.70
2018-01-17T04:17:51.195Z,2.70
2018-01-17T04:20:18.707Z,2.70
2018-01-17T04:22:46.254Z,2.70
2018-01-17T04:25:14.543Z,2.70
2018-01-17T04:27:42.059Z,2.70
2018-01-17T04:30:09.608Z,2.70
2018-01-17T04:32:37.888Z,2.70
2018-01-17T04:35:06.175Z,2.70
2018-01-17T04:37:34.478Z,2.70
2018-01-17T04:40:01.986Z,2.70
2018-01-17T04:42:29.506Z,2.80
2018-01-17T04:44:57.034Z,2.80
2018-01-17T04:47:24.551Z,2.80
2018-01-17T04:49:52.079Z,2.70
2018-01-17T04:52:20.754Z,2.70
2018-01-17T04:54:49.050Z,2.70
2018-01-17T04:57:17.341Z,2.70
2018-01-17T04:59:45.104Z,2.70
2018-01-17T05:02:13.379Z,2.60
2018-01-17T05:04:41.676Z,2.60
2018-01-17T05:07:09.981Z,2.60
2018-01-17T05:09:37.527Z,2.70
2018-01-17T05:12:05.793Z,2.60
2018-01-17T05:14:34.126Z,2.60
2018-01-17T05:17:01.649Z,2.60
2018-01-17T05:19:29.931Z,2.60
2018-01-17T05:21:58.230Z,2.60
2018-01-17T05:24:25.817Z,2.60
2018-01-17T05:26:53.325Z,2.60
2018-01-17T05:29:20.880Z,2.60
2018-01-17T05:31:48.394Z,2.70
2018-01-17T05:34:15.915Z,2.70
2018-01-17T05:36:43.450Z,2.60
2018-01-17T05:39:10.988Z,2.50
2018-01-17T05:41:38.516Z,2.50
2018-01-17T05:44:06.064Z,2.50
2018-01-17T05:46:33.584Z,2.50
2018-01-17T05:49:01.169Z,2.50
2018-01-17T05:51:28.709Z,2.50
2018-01-17T05:53:56.231Z,2.60
2018-01-17T05:56:23.791Z,2.60
2018-01-17T05:58:51.719Z,2.60
2018-01-17T06:01:19.216Z,2.60
2018-01-17T06:03:46.731Z,2.50
2018-01-17T06:06:14.286Z,2.50
2018-01-17T06:08:42.571Z,2.50
2018-01-17T06:11:10.869Z,2.50
2018-01-17T06:13:38.411Z,2.50
2018-01-17T06:16:06.700Z,2.60
2018-01-17T06:18:34.999Z,2.60
2018-01-17T06:21:02.565Z,2.60
2018-01-17T06:23:30.070Z,2.70
2018-01-17T06:25:57.593Z,2.70
2018-01-17T06:28:25.151Z,2.70
2018-01-17T06:30:52.678Z,2.60
2018-01-17T06:33:20.185Z,2.60
2018-01-17T06:35:47.731Z,2.60
2018-01-17T06:38:16.012Z,2.70
2018-01-17T06:40:44.299Z,2.70
2018-01-17T06:43:12.619Z,2.70
2018-01-17T06:45:40.128Z,2.70
2018-01-17T06:48:07.710Z,2.70
2018-01-17T06:50:36.033Z,2.70
2018-01-17T06:53:03.556Z,2.70
2018-01-17T06:55:31.841Z,2.70
2018-01-17T06:58:00.193Z,2.60
2018-01-17T07:00:27.808Z,2.60
2018-01-17T07:02:55.318Z,2.60
2018-01-17T07:05:22.861Z,2.60
2018-01-17T07:07:50.390Z,2.60
2018-01-17T07:10:17.905Z,2.50
2018-01-17T07:12:45.431Z,2.50
2018-01-17T07:15:12.960Z,2.50
2018-01-17T07:17:40.460Z,2.40
2018-01-17T07:20:07.997Z,2.50
2018-01-17T07:22:36.283Z,2.40
2018-01-17T07:25:04.560Z,2.50
2018-01-17T07:27:32.973Z,2.50
2018-01-17T07:30:00.517Z,2.50
2018-01-17T07:32:28.884Z,2.60
2018-01-17T07:34:56.423Z,2.60
2018-01-17T07:37:23.955Z,2.60
2018-01-17T07:39:51.520Z,2.60
2018-01-17T07:42:19.098Z,2.60
2018-01-17T07:44:46.620Z,2.60
2018-01-17T07:47:14.910Z,2.60
2018-01-17T07:49:43.223Z,2.60
2018-01-17T07:52:10.764Z,2.60
2018-01-17T07:54:38.292Z,2.60
2018-01-17T07:57:05.831Z,2.60
2018-01-17T07:59:33.387Z,2.50
2018-01-17T08:02:00.911Z,2.60
2018-01-17T08:04:29.383Z,2.60
2018-01-17T08:06:56.915Z,2.60
2018-01-17T08:09:24.436Z,2.60
2018-01-17T08:11:52.751Z,2.60
2018-01-17T08:14:20.287Z,2.60
2018-01-17T08:16:48.644Z,2.50
2018-01-17T08:19:16.183Z,2.50
2018-01-17T08:21:43.700Z,2.50
2018-01-17T08:24:11.232Z,2.50
2018-01-17T08:26:38.799Z,2.50
2018-01-17T08:29:06.408Z,2.50
2018-01-17T08:31:33.934Z,2.40
2018-01-17T08:34:01.477Z,2.40
2018-01-17T08:36:29.015Z,2.40
2018-01-17T08:38:56.698Z,2.30
2018-01-17T08:41:24.246Z,2.20
2018-01-17T08:43:51.781Z,2.30
2018-01-17T08:46:20.068Z,2.20
2018-01-17T08:48:47.623Z,2.20
2018-01-17T08:51:15.907Z,3.10
2018-01-17T08:53:44.192Z,2.40
2018-01-17T08:56:12.872Z,2.50
2018-01-17T08:58:41.149Z,2.50
2018-01-17T09:01:08.660Z,2.40
2018-01-17T09:03:36.450Z,2.50
2018-01-17T09:06:03.999Z,2.40
2018-01-17T09:08:31.504Z,2.40
2018-01-17T09:10:59.053Z,2.30
2018-01-17T09:13:26.585Z,2.40
2018-01-17T09:15:54.102Z,2.40
2018-01-17T09:18:21.987Z,2.50
2018-01-17T09:20:50.267Z,2.20
2018-01-17T09:23:18.562Z,2.10
2018-01-17T09:25:46.850Z,2.10
2018-01-17T09:28:14.375Z,2.10
2018-01-17T09:30:41.891Z,2.10
2018-01-17T09:33:09.452Z,2.20
2018-01-17T09:35:36.973Z,2.10
2018-01-17T09:38:04.587Z,2.20
2018-01-17T09:40:32.112Z,2.10
2018-01-17T09:42:59.633Z,2.00
2018-01-17T09:45:27.157Z,2.10
2018-01-17T09:47:55.471Z,2.10
2018-01-17T09:50:23.027Z,2.10
2018-01-17T09:52:50.553Z,2.10
2018-01-17T09:55:18.352Z,2.10
2018-01-17T09:57:45.884Z,2.10
2018-01-17T10:00:13.396Z,2.10
2018-01-17T10:02:40.960Z,2.10
2018-01-17T10:05:08.471Z,2.20
2018-01-17T10:07:36.089Z,2.10
2018-01-17T10:10:03.880Z,2.20
2018-01-17T10:12:31.403Z,2.30
2018-01-17T10:14:59.683Z,2.70
2018-01-17T10:17:27.992Z,2.80
2018-01-17T10:19:55.511Z,2.80
2018-01-17T10:22:23.041Z,2.90
2018-01-17T10:24:50.582Z,3.00
2018-01-17T10:27:18.205Z,3.00
2018-01-17T10:29:45.721Z,3.10
2018-01-17T10:32:13.628Z,3.20
2018-01-17T10:34:41.139Z,3.10
2018-01-17T10:37:08.667Z,3.10
2018-01-17T10:39:36.212Z,3.10
2018-01-17T10:42:03.760Z,3.20
2018-01-17T10:44:31.329Z,3.20
2018-01-17T10:46:59.608Z,3.20
2018-01-17T10:49:27.158Z,3.20
2018-01-17T10:51:54.755Z,3.30
2018-01-17T10:54:23.158Z,3.50
2018-01-17T10:56:50.692Z,3.40
2018-01-17T10:59:18.204Z,3.50
2018-01-17T11:01:46.522Z,3.40
2018-01-17T11:04:14.104Z,3.40
2018-01-17T11:06:41.625Z,3.60
2018-01-17T11:09:09.944Z,3.60
2018-01-17T11:11:37.647Z,3.60
2018-01-17T11:14:05.166Z,3.60
2018-01-17T11:16:33.022Z,3.70
2018-01-17T11:19:01.310Z,3.70
2018-01-17T11:21:29.611Z,3.70
2018-01-17T11:23:57.252Z,3.70
2018-01-17T11:26:25.543Z,3.90
2018-01-17T11:28:53.069Z,3.80
2018-01-17T11:31:20.605Z,3.90
2018-01-17T11:33:48.145Z,3.90
2018-01-17T11:36:19.879Z,4.00
2018-01-17T11:38:48.197Z,4.00
2018-01-17T11:41:15.715Z,3.90
2018-01-17T11:43:43.244Z,4.00
2018-01-17T11:46:10.776Z,4.00
2018-01-17T11:48:38.310Z,4.10
2018-01-17T11:51:05.955Z,4.10
2018-01-17T11:53:33.513Z,4.00
2018-01-17T11:56:01.056Z,3.90
2018-01-17T11:58:28.661Z,3.90
2018-01-17T12:00:56.215Z,3.90
2018-01-17T12:03:23.754Z,3.90
2018-01-17T12:05:51.285Z,4.00
2018-01-17T12:08:19.714Z,4.10
2018-01-17T12:10:47.316Z,4.10
2018-01-17T12:13:14.803Z,4.20
2018-01-17T12:15:43.128Z,4.20
2018-01-17T12:18:10.732Z,4.20
2018-01-17T12:20:38.343Z,4.20
2018-01-17T12:23:05.909Z,4.20
2018-01-17T12:25:33.423Z,4.20
2018-01-17T12:28:01.795Z,4.40
2018-01-17T12:30:29.342Z,4.40
2018-01-17T12:32:56.924Z,4.40
2018-01-17T12:35:24.549Z,4.60
2018-01-17T12:37:52.105Z,4.60
2018-01-17T12:40:20.396Z,4.80
2018-01-17T12:42:47.919Z,4.80
2018-01-17T12:45:15.471Z,4.80
2018-01-17T12:47:43.760Z,4.70
2018-01-17T12:50:11.293Z,4.70
2018-01-17T12:52:38.833Z,4.70
2018-01-17T12:55:06.358Z,4.80
2018-01-17T12:57:33.933Z,4.70
2018-01-17T13:00:01.468Z,4.70
2018-01-17T13:02:29.006Z,4.70
2018-01-17T13:04:56.657Z,4.60
2018-01-17T13:07:24.240Z,4.60
2018-01-17T13:09:51.757Z,4.60
2018-01-17T13:12:19.291Z,4.60
2018-01-17T13:14:46.844Z,4.70
2018-01-17T13:17:14.456Z,4.70
2018-01-17T13:19:41.959Z,4.70
2018-01-17T13:22:09.512Z,4.70
2018-01-17T13:24:37.050Z,4.60
2018-01-17T13:27:04.559Z,4.60
2018-01-17T13:29:32.124Z,4.60
2018-01-17T13:31:59.665Z,4.70
2018-01-17T13:34:27.963Z,4.70
2018-01-17T13:36:55.550Z,4.70
2018-01-17T13:39:23.787Z,4.60
2018-01-17T13:41:52.085Z,4.60
2018-01-17T13:44:19.654Z,4.50
2018-01-17T13:46:47.164Z,4.60
2018-01-17T13:49:14.695Z,4.50
2018-01-17T13:51:42.236Z,4.50
2018-01-17T13:54:10.534Z,4.40
2018-01-17T13:56:38.073Z,4.40
2018-01-17T13:59:06.381Z,4.30
2018-01-17T14:01:33.895Z,4.30
2018-01-17T14:04:01.425Z,4.30
2018-01-17T14:06:28.976Z,4.10
2018-01-17T14:08:56.497Z,4.00
2018-01-17T14:11:24.029Z,3.90
2018-01-17T14:13:51.572Z,3.80
2018-01-17T14:16:19.111Z,3.80
2018-01-17T14:18:47.471Z,3.60
2018-01-17T14:21:15.029Z,3.60
2018-01-17T14:23:42.582Z,3.50
2018-01-17T14:26:10.116Z,3.40
2018-01-17T14:28:37.658Z,3.30
2018-01-17T14:31:05.951Z,3.30
2018-01-17T14:33:33.492Z,3.30
2018-01-17T14:36:01.033Z,3.30
2018-01-17T14:38:29.326Z,3.40
2018-01-17T14:40:56.864Z,3.40
2018-01-17T14:43:24.414Z,3.50
2018-01-17T14:45:51.942Z,3.40
2018-01-17T14:48:20.723Z,3.40
2018-01-17T14:50:48.304Z,3.50
2018-01-17T14:53:15.795Z,3.50
2018-01-17T14:55:43.315Z,3.50
2018-01-17T14:58:10.856Z,3.60
2018-01-17T15:00:39.155Z,3.60
2018-01-17T15:03:06.677Z,3.60
2018-01-17T15:05:34.385Z,3.70
2018-01-17T15:08:01.980Z,3.70
2018-01-17T15:10:30.283Z,3.70
2018-01-17T15:12:58.037Z,3.80
2018-01-17T15:15:26.323Z,3.90
2018-01-17T15:17:53.843Z,3.90
2018-01-17T15:20:21.371Z,3.90
2018-01-17T15:22:48.902Z,3.80
2018-01-17T15:25:17.180Z,3.70
2018-01-17T15:27:44.717Z,3.60
2018-01-17T15:30:12.248Z,3.60
2018-01-17T15:32:39.944Z,3.60
2018-01-17T15:35:07.577Z,3.50
2018-01-17T15:37:35.100Z,3.40
2018-01-17T15:40:02.628Z,3.30
2018-01-17T15:42:30.205Z,3.10
2018-01-17T15:44:57.736Z,3.10
2018-01-17T15:47:25.281Z,3.00
2018-01-17T15:49:53.633Z,3.10
2018-01-17T15:52:21.165Z,3.00
2018-01-17T15:54:48.690Z,2.90
2018-01-17T15:57:17.018Z,2.90
2018-01-17T15:59:44.544Z,2.90
2018-01-17T16:02:12.827Z,2.90
2018-01-17T16:04:40.411Z,2.90
2018-01-17T16:07:07.928Z,3.10
2018-01-17T16:09:35.453Z,3.10
2018-01-17T16:12:03.003Z,3.10
2018-01-17T16:14:30.548Z,3.00
2018-01-17T16:16:58.870Z,3.00
2018-01-17T16:19:26.389Z,3.00
2018-01-17T16:21:54.675Z,3.00
2018-01-17T16:24:22.973Z,3.00
2018-01-17T16:26:50.515Z,2.90
2018-01-17T16:29:18.816Z,2.90
2018-01-17T16:31:47.218Z,2.90
2018-01-17T16:34:14.755Z,2.90
2018-01-17T16:36:43.046Z,2.90
2018-01-17T16:39:10.564Z,2.90
2018-01-17T16:41:38.108Z,3.00
2018-01-17T16:44:05.636Z,3.00
2018-01-17T16:46:33.248Z,3.00
2018-01-17T16:49:00.829Z,3.00
2018-01-17T16:51:28.360Z,3.00
2018-01-17T16:53:55.888Z,3.00
2018-01-17T16:56:24.196Z,3.10
2018-01-17T16:58:51.732Z,3.00
2018-01-17T17:01:20.028Z,3.20
2018-01-17T17:03:47.538Z,3.20
2018-01-17T17:06:15.077Z,3.20
2018-01-17T17:08:42.596Z,3.20
2018-01-17T17:11:10.489Z,3.20
2018-01-17T17:13:38.932Z,3.40
2018-01-17T17:16:06.464Z,3.30
2018-01-17T17:18:34.011Z,3.30
2018-01-17T17:21:01.535Z,3.40
2018-01-17T17:23:29.074Z,3.50
2018-01-17T17:25:56.630Z,3.60
2018-01-17T17:28:24.157Z,3.70
2018-01-17T17:30:52.522Z,3.70
2018-01-17T17:33:20.143Z,3.70
2018-01-17T17:35:47.660Z,3.70
2018-01-17T17:38:15.266Z,3.70
2018-01-17T17:40:42.795Z,3.70
2018-01-17T17:43:11.101Z,3.70
2018-01-17T17:45:38.652Z,3.70
2018-01-17T17:48:06.978Z,3.70
2018-01-17T17:50:34.511Z,3.70
2018-01-17T17:53:02.074Z,3.70
2018-01-17T17:55:30.378Z,3.70
2018-01-17T17:57:57.913Z,3.70
2018-01-17T18:00:26.222Z,3.60
2018-01-17T18:02:53.872Z,3.60
2018-01-17T18:05:22.157Z,3.70
2018-01-17T18:07:49.691Z,3.70
2018-01-17T18:10:17.308Z,3.80
2018-01-17T18:12:44.825Z,3.80
2018-01-17T18:15:12.356Z,3.90
2018-01-17T18:17:39.911Z,3.90
2018-01-17T18:20:07.461Z,3.80
2018-01-17T18:22:34.989Z,3.90
2018-01-17T18:25:02.545Z,3.80
2018-01-17T18:27:30.168Z,3.80
2018-01-17T18:29:57.696Z,3.80
2018-01-17T18:32:26.112Z,3.90
2018-01-17T18:34:53.667Z,3.90
2018-01-17T18:37:21.188Z,3.90
2018-01-17T18:39:48.819Z,3.90
2018-01-17T18:42:16.333Z,3.80
2018-01-17T18:44:44.601Z,3.80
2018-01-17T18:47:12.206Z,3.80
2018-01-17T18:49:39.667Z,3.90
2018-01-17T18:52:07.234Z,3.80
2018-01-17T18:54:35.538Z,3.90
2018-01-17T18:57:03.090Z,3.90
2018-01-17T18:59:30.623Z,4.00
2018-01-17T19:01:58.999Z,4.00
2018-01-17T19:04:26.492Z,4.00
2018-01-17T19:06:54.830Z,4.00
2018-01-17T19:09:22.377Z,4.00
2018-01-17T19:11:49.905Z,4.00
2018-01-17T19:14:17.473Z,4.00
2018-01-17T19:16:45.156Z,4.00
2018-01-17T19:19:12.901Z,3.90
2018-01-17T19:21:41.309Z,3.70
2018-01-17T19:24:08.866Z,3.70
2018-01-17T19:26:37.302Z,3.50
2018-01-17T19:29:04.834Z,3.50
2018-01-17T19:31:32.388Z,3.50
2018-01-17T19:33:59.926Z,3.40
2018-01-17T19:36:28.337Z,3.30
2018-01-17T19:38:55.861Z,3.30
2018-01-17T19:41:23.401Z,3.40
2018-01-17T19:43:51.712Z,3.30
2018-01-17T19:46:19.262Z,3.30
2018-01-17T19:48:46.789Z,3.40
2018-01-17T19:51:14.353Z,3.40
2018-01-17T19:53:41.930Z,3.50
2018-01-17T19:56:09.466Z,3.50
2018-01-17T19:58:37.003Z,3.50
2018-01-17T20:01:04.572Z,3.60
2018-01-17T20:03:32.118Z,3.60
2018-01-17T20:05:59.736Z,3.60
2018-01-17T20:08:28.171Z,3.60
2018-01-17T20:10:55.716Z,3.60
2018-01-17T20:13:23.254Z,3.60
2018-01-17T20:15:50.873Z,3.70
2018-01-17T20:18:18.485Z,3.70
2018-01-17T20:20:46.027Z,3.70
2018-01-17T20:23:14.382Z,3.80
2018-01-17T20:25:42.002Z,3.80
2018-01-17T20:28:09.529Z,3.80
2018-01-17T20:30:37.107Z,3.70
2018-01-17T20:33:05.437Z,3.70
2018-01-17T20:35:32.963Z,3.60
2018-01-17T20:38:00.539Z,3.50
2018-01-17T20:40:28.064Z,3.40
2018-01-17T20:42:55.591Z,3.50
2018-01-17T20:45:23.148Z,3.30
2018-01-17T20:47:51.558Z,3.20
2018-01-17T20:50:19.093Z,3.20
2018-01-17T20:52:46.714Z,3.10
2018-01-17T20:55:15.141Z,2.80
2018-01-17T20:57:42.688Z,2.80
2018-01-17T21:00:11.005Z,2.60
2018-01-17T21:02:38.685Z,2.60
2018-01-17T21:05:06.273Z,2.50
2018-01-17T21:07:33.829Z,2.40
2018-01-17T21:10:01.361Z,2.30
2018-01-17T21:12:28.895Z,2.30
2018-01-17T21:14:56.466Z,2.20
2018-01-17T21:17:24.812Z,2.10
2018-01-17T21:19:52.436Z,2.10
2018-01-17T21:22:20.009Z,2.20
2018-01-17T21:24:47.523Z,2.20
2018-01-17T21:27:15.060Z,2.30
2018-01-17T21:29:42.986Z,2.30
2018-01-17T21:32:12.086Z,2.40
2018-01-17T21:34:40.363Z,2.40
2018-01-17T21:37:08.684Z,2.40
2018-01-17T21:39:36.206Z,2.40
2018-01-17T21:42:04.493Z,2.40
2018-01-17T21:44:38.338Z,2.50
2018-01-17T21:47:05.869Z,2.40
2018-01-17T21:49:34.169Z,2.60
2018-01-17T21:52:01.789Z,2.60
2018-01-17T21:54:29.312Z,2.60
2018-01-17T21:56:57.017Z,2.60
2018-01-17T21:59:24.587Z,2.60
2018-01-17T22:01:53.031Z,2.70
2018-01-17T22:04:23.033Z,2.70
2018-01-17T22:06:51.040Z,2.70
2018-01-17T22:09:18.564Z,2.70
2018-01-17T22:11:46.881Z,2.60
2018-01-17T22:14:14.412Z,2.60
2018-01-17T22:16:42.702Z,2.60
2018-01-17T22:19:11.537Z,2.60
2018-01-17T22:21:39.106Z,2.60
2018-01-17T22:24:06.616Z,2.50
2018-01-17T22:26:34.921Z,2.40
2018-01-17T22:29:02.456Z,2.40
2018-01-17T22:31:30.749Z,2.30
2018-01-17T22:33:58.433Z,2.30
2018-01-17T22:36:25.974Z,2.30
2018-01-17T22:38:54.358Z,2.30
2018-01-17T22:41:21.877Z,2.30
2018-01-17T22:43:49.423Z,2.40
2018-01-17T22:46:17.112Z,2.40
2018-01-17T22:48:44.643Z,2.40
2018-01-17T22:51:12.450Z,2.30
2018-01-17T22:53:40.000Z,2.40
2018-01-17T22:56:07.515Z,2.30
2018-01-17T22:58:35.931Z,2.40
2018-01-17T23:01:03.486Z,2.30
2018-01-17T23:03:31.071Z,2.40
2018-01-17T23:05:58.599Z,2.40
2018-01-17T23:08:26.914Z,2.40
2018-01-17T23:10:54.474Z,2.40
2018-01-17T23:13:22.341Z,2.40
2018-01-17T23:15:49.851Z,2.50
2018-01-17T23:18:17.369Z,2.50
2018-01-17T23:20:44.917Z,2.50
2018-01-17T23:23:13.222Z,2.50
2018-01-17T23:25:40.738Z,2.50
2018-01-17T23:28:08.558Z,2.50
2018-01-17T23:30:36.085Z,2.60
2018-01-17T23:33:03.611Z,2.60
2018-01-17T23:35:31.163Z,2.60
2018-01-17T23:37:58.716Z,2.60
2018-01-17T23:40:26.281Z,2.70
2018-01-17T23:42:54.589Z,2.80
2018-01-17T23:45:22.108Z,2.80
2018-01-17T23:47:50.408Z,2.90
2018-01-17T23:50:17.945Z,2.90
2018-01-17T23:52:46.236Z,2.90
2018-01-17T23:55:14.523Z,3.00
2018-01-17T23:57:42.849Z,3.00
